Time;durP1;ratioP1;P1;durP2;ratioP2;P2;SDS_P1;SDS_P2;PMS_P1;PMS_P2;Temp;Humidity;BMP_temperature;BMP_pressure;BME280_temperature;BME280_humidity;BME280_pressure;Samples;Min_cycle;Max_cycle;Signal;HPM_P1;HPM_P2
2022/05/06 00:00:01;;;;;;;24.40;17.55;;;27.00;93.00;;;;;;1885203;73;21673;-79
2022/05/06 00:02:33;;;;;;;23.42;18.23;;;27.00;93.10;;;;;;1875423;74;21097;-79
2022/05/06 00:05:04;;;;;;;24.63;17.90;;;27.00;92.90;;;;;;1892588;73;21103;-79
2022/05/06 00:07:35;;;;;;;22.67;18.07;;;27.00;92.90;;;;;;1892674;74;21233;-78
2022/05/06 00:10:09;;;;;;;25.55;18.00;;;27.00;92.70;;;;;;1893227;74;21299;-78
2022/05/06 00:12:40;;;;;;;26.85;17.37;;;27.00;92.90;;;;;;1880363;74;21251;-78
2022/05/06 00:15:11;;;;;;;20.48;17.57;;;27.00;92.80;;;;;;1870742;74;21677;-80
2022/05/06 00:17:42;;;;;;;21.95;17.23;;;27.00;93.00;;;;;;1876802;73;21080;-79
2022/05/06 00:20:13;;;;;;;25.65;18.52;;;27.00;92.80;;;;;;1890808;73;21218;-79
2022/05/06 00:22:44;;;;;;;23.95;18.48;;;27.00;93.00;;;;;;1886817;74;21166;-79
2022/05/06 00:25:15;;;;;;;26.85;17.87;;;27.00;92.90;;;;;;1876884;73;21640;-79
2022/05/06 00:27:46;;;;;;;26.10;18.30;;;27.00;92.50;;;;;;1883715;73;21163;-79
2022/05/06 00:30:17;;;;;;;23.85;17.85;;;27.00;93.10;;;;;;1868900;74;21095;-73
2022/05/06 00:32:49;;;;;;;28.75;18.67;;;27.00;93.40;;;;;;1867722;75;22417;-72
2022/05/06 00:35:20;;;;;;;25.72;18.95;;;27.00;93.10;;;;;;1889932;73;21161;-72
2022/05/06 00:37:51;;;;;;;25.68;18.50;;;27.00;93.70;;;;;;1866963;74;21149;-72
2022/05/06 00:40:22;;;;;;;24.18;17.75;;;27.00;93.30;;;;;;1907414;74;21181;-72
2022/05/06 00:42:53;;;;;;;26.27;17.80;;;27.00;93.50;;;;;;1873794;75;21151;-73
2022/05/06 00:45:24;;;;;;;24.15;18.70;;;27.00;93.30;;;;;;1877169;74;21185;-74
2022/05/06 00:47:55;;;;;;;23.30;17.62;;;27.10;93.60;;;;;;1867069;75;21745;-74
2022/05/06 00:50:26;;;;;;;27.40;18.73;;;27.10;93.40;;;;;;1826045;78;21502;-73
2022/05/06 00:52:57;;;;;;;23.05;16.27;;;27.10;93.20;;;;;;1793207;78;21824;-72
2022/05/06 00:55:28;;;;;;;25.35;16.25;;;27.10;92.70;;;;;;1798743;79;21186;-73
2022/05/06 00:57:59;;;;;;;22.50;16.10;;;27.10;92.60;;;;;;1887823;74;21722;-73
2022/05/06 01:00:31;;;;;;;21.12;16.30;;;27.10;92.50;;;;;;1893982;73;21751;-73
2022/05/06 01:03:02;;;;;;;20.95;16.52;;;27.10;92.50;;;;;;1896605;74;21155;-74
2022/05/06 01:05:33;;;;;;;20.68;16.20;;;27.10;92.40;;;;;;1875551;74;21778;-71
2022/05/06 01:08:05;;;;;;;22.87;17.48;;;27.10;92.40;;;;;;1861346;75;21166;-72
2022/05/06 01:10:37;;;;;;;21.05;16.90;;;27.20;92.60;;;;;;1887701;74;21101;-72
2022/05/06 01:13:08;;;;;;;22.87;16.87;;;27.20;92.50;;;;;;1898612;73;21135;-72
2022/05/06 01:15:40;;;;;;;23.52;17.20;;;27.20;92.80;;;;;;1853902;75;21601;-72
2022/05/06 01:18:12;;;;;;;21.20;17.17;;;27.20;92.90;;;;;;1869224;74;21165;-72
2022/05/06 01:20:46;;;;;;;22.80;17.10;;;27.20;93.20;;;;;;1883265;73;21605;-72
2022/05/06 01:23:17;;;;;;;19.37;15.93;;;27.10;93.10;;;;;;1874466;74;21609;-72
2022/05/06 01:25:49;;;;;;;25.40;17.23;;;27.10;93.10;;;;;;1832273;77;22322;-72
2022/05/06 01:28:25;;;;;;;21.87;16.27;;;27.20;93.00;;;;;;1833976;76;21150;-72
2022/05/06 01:31:00;;;;;;;20.10;16.27;;;27.20;93.10;;;;;;1848754;76;21147;-72
2022/05/06 01:33:31;;;;;;;22.85;16.80;;;27.10;93.00;;;;;;1855284;76;21662;-72
2022/05/06 01:36:04;;;;;;;24.55;16.97;;;27.20;92.90;;;;;;1868175;75;21645;-73
2022/05/06 01:38:39;;;;;;;22.65;16.07;;;27.20;92.80;;;;;;1884648;74;21177;-71
2022/05/06 01:41:12;;;;;;;24.98;17.42;;;27.20;92.70;;;;;;1874966;73;21112;-71
2022/05/06 01:43:45;;;;;;;23.52;17.55;;;27.30;92.70;;;;;;1873832;73;21170;-71
2022/05/06 01:46:20;;;;;;;20.57;16.05;;;27.30;92.40;;;;;;1865764;75;21633;-72
2022/05/06 01:48:51;;;;;;;22.37;17.70;;;27.30;92.30;;;;;;1838347;77;21704;-72
2022/05/06 01:51:24;;;;;;;23.32;17.48;;;27.30;92.30;;;;;;1871517;73;21586;-74
2022/05/06 01:53:55;;;;;;;23.07;18.98;;;27.30;92.20;;;;;;1877114;73;21244;-74
2022/05/06 01:56:28;;;;;;;22.93;18.05;;;27.30;92.10;;;;;;1869539;74;21118;-75
2022/05/06 01:58:59;;;;;;;22.40;16.42;;;27.30;92.20;;;;;;1882680;73;21598;-74
2022/05/06 02:01:33;;;;;;;21.93;17.73;;;27.30;92.00;;;;;;1873400;73;21150;-75
2022/05/06 02:06:36;;;;;;;22.15;16.05;;;27.30;91.80;;;;;;1884047;74;21181;-72
2022/05/06 02:09:06;;;;;;;23.45;17.25;;;27.30;91.90;;;;;;1870433;75;21170;-72
2022/05/06 02:11:38;;;;;;;20.85;16.60;;;27.30;91.70;;;;;;1868692;75;21209;-72
2022/05/06 02:14:11;;;;;;;21.12;15.85;;;27.40;92.00;;;;;;1856171;74;21898;-71
2022/05/06 02:16:43;;;;;;;21.70;16.42;;;27.40;91.80;;;;;;1862891;75;21144;-72
2022/05/06 02:19:14;;;;;;;22.32;16.25;;;27.40;91.90;;;;;;1916218;73;21131;-71
2022/05/06 02:21:48;;;;;;;22.07;16.23;;;27.40;91.60;;;;;;1883707;74;21139;-72
2022/05/06 02:24:19;;;;;;;21.48;15.75;;;27.50;91.60;;;;;;1895603;74;21143;-73
2022/05/06 02:26:51;;;;;;;18.70;14.47;;;27.50;91.60;;;;;;1894032;73;21132;-72
2022/05/06 02:29:22;;;;;;;19.20;15.18;;;27.60;91.60;;;;;;1918737;74;21183;-73
2022/05/06 02:34:26;;;;;;;19.35;15.23;;;27.70;91.40;;;;;;1904421;74;21783;-72
2022/05/06 02:36:57;;;;;;;16.80;14.03;;;27.80;91.40;;;;;;1879463;75;21634;-73
2022/05/06 02:39:28;;;;;;;20.25;14.50;;;27.80;91.40;;;;;;1870591;75;21147;-72
2022/05/06 02:41:59;;;;;;;19.37;14.25;;;27.90;91.30;;;;;;1908259;73;21120;-73
2022/05/06 02:44:29;;;;;;;20.25;15.15;;;27.90;91.10;;;;;;1912127;73;21718;-72
2022/05/06 02:47:01;;;;;;;22.48;15.48;;;28.00;91.20;;;;;;1884919;73;21130;-73
2022/05/06 02:49:31;;;;;;;17.67;14.53;;;28.20;91.10;;;;;;1901833;74;21203;-73
2022/05/06 02:52:06;;;;;;;21.68;14.43;;;28.30;90.90;;;;;;1893817;73;21224;-73
2022/05/06 02:54:37;;;;;;;20.20;15.48;;;28.40;90.80;;;;;;1913561;73;21217;-73
2022/05/06 02:57:07;;;;;;;19.55;13.65;;;28.70;90.50;;;;;;1900750;73;21128;-72
2022/05/06 02:59:39;;;;;;;18.95;15.20;;;28.90;90.30;;;;;;1905387;74;21102;-73
2022/05/06 03:02:10;;;;;;;18.17;14.05;;;29.00;90.10;;;;;;1896494;73;21622;-74
2022/05/06 03:04:41;;;;;;;20.08;14.53;;;29.20;90.00;;;;;;1893289;73;21159;-73
2022/05/06 03:07:12;;;;;;;17.57;14.87;;;29.30;89.50;;;;;;1896594;73;21557;-73
2022/05/06 03:09:42;;;;;;;19.67;13.93;;;29.40;89.40;;;;;;1897981;74;21109;-73
2022/05/06 03:12:13;;;;;;;21.35;15.10;;;29.40;89.60;;;;;;1888755;73;21212;-72
2022/05/06 03:14:44;;;;;;;20.10;14.98;;;29.50;89.50;;;;;;1884862;73;21255;-72
2022/05/06 03:17:15;;;;;;;17.32;13.58;;;29.40;89.30;;;;;;1882854;73;21853;-75
2022/05/06 03:19:46;;;;;;;17.10;14.25;;;29.50;89.30;;;;;;1895277;73;21979;-72
2022/05/06 03:22:18;;;;;;;18.70;14.20;;;29.60;89.10;;;;;;1901708;74;21205;-72
2022/05/06 03:24:50;;;;;;;17.55;13.35;;;29.60;89.10;;;;;;1864631;75;21245;-72
2022/05/06 03:29:55;;;;;;;16.57;13.50;;;29.60;88.50;;;;;;1866784;74;21446;-73
2022/05/06 03:32:27;;;;;;;16.65;13.28;;;29.60;88.70;;;;;;1863317;75;21593;-73
2022/05/06 03:34:59;;;;;;;16.32;13.10;;;29.50;88.30;;;;;;1887279;74;21158;-72
2022/05/06 03:37:31;;;;;;;20.23;13.15;;;29.50;88.40;;;;;;1886311;74;21151;-72
2022/05/06 03:40:02;;;;;;;18.37;13.60;;;29.50;88.30;;;;;;1878537;74;21554;-74
2022/05/06 03:42:33;;;;;;;16.27;12.80;;;29.60;88.50;;;;;;1865574;73;21680;-73
2022/05/06 03:45:06;;;;;;;20.05;13.48;;;29.60;88.50;;;;;;1894867;73;21071;-73
2022/05/06 03:47:37;;;;;;;16.40;12.03;;;29.60;88.60;;;;;;1908397;73;21095;-74
2022/05/06 03:52:41;;;;;;;15.88;12.53;;;29.60;88.00;;;;;;1878871;75;21146;-73
2022/05/06 03:55:14;;;;;;;17.55;12.53;;;29.60;88.30;;;;;;1892150;74;21146;-73
2022/05/06 03:57:45;;;;;;;18.62;11.57;;;29.50;88.20;;;;;;1902803;73;21148;-73
2022/05/06 04:00:19;;;;;;;14.20;11.75;;;29.60;88.30;;;;;;1909535;73;21669;-72
2022/05/06 04:02:50;;;;;;;19.00;12.98;;;29.60;88.10;;;;;;1908007;74;21123;-73
2022/05/06 04:05:21;;;;;;;17.23;12.80;;;29.50;88.10;;;;;;1903390;74;21630;-72
2022/05/06 04:07:52;;;;;;;15.40;12.88;;;29.50;88.30;;;;;;1896458;73;21138;-73
2022/05/06 04:10:23;;;;;;;15.45;12.80;;;29.50;88.40;;;;;;1895642;73;21745;-72
2022/05/06 04:12:53;;;;;;;17.07;13.22;;;29.50;88.50;;;;;;1862421;74;21701;-72
2022/05/06 04:15:24;;;;;;;16.97;13.05;;;29.50;88.60;;;;;;1855728;75;21555;-72
2022/05/06 04:17:55;;;;;;;16.52;13.05;;;29.60;88.90;;;;;;1873546;73;21224;-72
2022/05/06 04:25:35;;;;;;;15.85;13.45;;;29.50;89.00;;;;;;1869332;74;21169;-73
2022/05/06 04:28:06;;;;;;;19.40;14.03;;;29.60;88.70;;;;;;1889394;75;21175;-71
2022/05/06 04:30:37;;;;;;;19.87;13.80;;;29.70;88.80;;;;;;1899020;74;21657;-73
2022/05/06 04:33:08;;;;;;;20.37;14.03;;;29.80;88.30;;;;;;1869505;75;21233;-73
2022/05/06 04:35:39;;;;;;;20.23;13.98;;;29.90;88.30;;;;;;1866631;74;21192;-72
2022/05/06 04:38:10;;;;;;;17.17;13.68;;;29.90;88.00;;;;;;1877916;73;21165;-72
2022/05/06 04:40:42;;;;;;;18.62;14.40;;;29.90;87.90;;;;;;1890393;73;21142;-72
2022/05/06 04:43:17;;;;;;;20.97;14.83;;;29.90;88.20;;;;;;1878471;74;21566;-72
2022/05/06 04:45:50;;;;;;;19.45;15.18;;;29.80;88.10;;;;;;1878778;74;21705;-72
2022/05/06 04:48:22;;;;;;;19.02;14.95;;;29.80;88.10;;;;;;1861280;74;21126;-72
2022/05/06 04:50:53;;;;;;;19.17;14.98;;;29.80;88.20;;;;;;1860060;75;21153;-71
2022/05/06 04:53:24;;;;;;;19.27;15.40;;;29.80;89.10;;;;;;1846103;75;21697;-72
2022/05/06 04:55:56;;;;;;;20.50;15.50;;;29.80;88.60;;;;;;1875608;74;21138;-72
2022/05/06 04:58:28;;;;;;;19.87;15.93;;;29.80;89.00;;;;;;1911871;73;21633;-72
2022/05/06 05:01:00;;;;;;;20.23;16.30;;;29.70;88.70;;;;;;1883212;73;21233;-72
2022/05/06 05:03:32;;;;;;;20.68;15.35;;;29.80;88.80;;;;;;1888876;74;21124;-71
2022/05/06 05:06:03;;;;;;;21.73;16.20;;;29.80;88.40;;;;;;1879928;74;21189;-72
2022/05/06 05:08:35;;;;;;;18.85;14.58;;;29.80;88.80;;;;;;1882238;74;21133;-72
2022/05/06 05:11:05;;;;;;;20.60;15.55;;;29.80;88.90;;;;;;1882974;74;21211;-73
2022/05/06 05:13:38;;;;;;;20.70;15.45;;;30.00;88.50;;;;;;1851709;75;21142;-72
2022/05/06 05:16:08;;;;;;;18.77;14.98;;;30.00;88.60;;;;;;1867239;73;21683;-74
2022/05/06 05:18:39;;;;;;;19.75;15.48;;;30.00;87.80;;;;;;1902532;75;21151;-72
2022/05/06 05:21:10;;;;;;;19.90;16.10;;;30.10;88.20;;;;;;1891820;74;21188;-72
2022/05/06 05:23:41;;;;;;;19.20;14.65;;;30.20;88.40;;;;;;1885688;74;21170;-72
2022/05/06 05:26:13;;;;;;;17.87;14.87;;;30.30;87.50;;;;;;1887997;74;21114;-72
2022/05/06 05:28:44;;;;;;;19.12;14.65;;;30.50;87.30;;;;;;1892531;73;21244;-73
2022/05/06 05:31:15;;;;;;;18.15;13.53;;;30.60;86.50;;;;;;1887644;75;21587;-73
2022/05/06 05:33:46;;;;;;;18.10;13.85;;;30.80;86.20;;;;;;1818094;77;21212;-73
2022/05/06 05:36:19;;;;;;;18.85;14.68;;;30.90;85.10;;;;;;1882850;74;21115;-72
2022/05/06 05:38:50;;;;;;;16.10;13.38;;;31.10;84.90;;;;;;1920452;73;22694;-72
2022/05/06 05:41:21;;;;;;;16.45;13.05;;;31.40;86.50;;;;;;1874659;74;21098;-72
2022/05/06 05:48:57;;;;;;;17.52;13.10;;;;;;;;;;1872397;75;21112;-72
2022/05/06 05:51:28;;;;;;;17.25;13.93;;;32.10;94.50;;;;;;1885341;74;21371;-72
2022/05/06 05:54:01;;;;;;;18.73;14.45;;;31.80;96.00;;;;;;1875260;75;21130;-71
2022/05/06 05:56:32;;;;;;;20.68;14.90;;;31.90;98.40;;;;;;1897886;74;21444;-71
2022/05/06 05:59:03;;;;;;;14.93;13.25;;;32.00;96.70;;;;;;1909248;74;21113;-71
2022/05/06 06:01:39;;;;;;;;;;;32.20;97.70;;;;;;1881630;73;21731;-71
2022/05/06 06:04:10;;;;;;;17.67;13.32;;;32.30;94.50;;;;;;1864900;73;20231;-71
2022/05/06 06:06:41;;;;;;;17.07;13.05;;;32.00;92.90;;;;;;1873739;74;21158;-72
2022/05/06 06:09:12;;;;;;;17.12;13.48;;;32.20;80.60;;;;;;1878205;74;21756;-71
2022/05/06 06:11:43;;;;;;;15.72;13.58;;;32.20;79.70;;;;;;1881113;74;21642;-71
2022/05/06 06:14:14;;;;;;;15.48;13.40;;;32.30;89.40;;;;;;1860712;73;21178;-71
2022/05/06 06:16:45;;;;;;;15.23;12.68;;;32.20;89.60;;;;;;1864300;74;21122;-71
2022/05/06 06:19:17;;;;;;;16.07;13.55;;;32.10;90.20;;;;;;1875961;75;21102;-72
2022/05/06 06:21:48;;;;;;;17.67;13.10;;;32.20;90.70;;;;;;1901756;73;21156;-71
2022/05/06 06:24:19;;;;;;;18.77;13.90;;;32.40;88.70;;;;;;1896679;74;21135;-72
2022/05/06 06:26:50;;;;;;;18.02;13.25;;;32.50;91.80;;;;;;1873783;75;21157;-73
2022/05/06 06:29:21;;;;;;;18.10;13.35;;;32.30;93.60;;;;;;1883126;73;21162;-73
2022/05/06 06:31:51;;;;;;;16.85;13.78;;;32.40;92.60;;;;;;1862316;75;21159;-72
2022/05/06 06:34:22;;;;;;;17.10;12.90;;;32.60;87.40;;;;;;1858470;74;21139;-73
2022/05/06 06:36:53;;;;;;;15.68;13.45;;;32.60;83.60;;;;;;1890251;74;21112;-72
2022/05/06 06:39:24;;;;;;;16.80;12.82;;;32.60;83.10;;;;;;1896065;75;21136;-72
2022/05/06 06:41:55;;;;;;;16.57;12.58;;;32.60;92.40;;;;;;1869569;75;21194;-72
2022/05/06 06:44:26;;;;;;;15.50;12.70;;;32.80;91.60;;;;;;1891689;75;21161;-71
2022/05/06 06:46:57;;;;;;;20.00;14.83;;;32.50;91.80;;;;;;1863356;75;21123;-72
2022/05/06 06:49:28;;;;;;;21.15;13.35;;;32.40;92.30;;;;;;1868125;73;21571;-72
2022/05/06 06:51:58;;;;;;;18.20;13.35;;;32.30;93.00;;;;;;1852600;75;21158;-75
2022/05/06 06:54:31;;;;;;;17.80;13.10;;;32.30;93.70;;;;;;1832473;75;21119;-72
2022/05/06 06:57:03;;;;;;;19.57;13.08;;;32.30;92.80;;;;;;1879361;75;21199;-72
2022/05/06 06:59:34;;;;;;;16.75;13.65;;;32.00;92.60;;;;;;1878027;74;21158;-74
2022/05/06 07:02:05;;;;;;;16.12;13.40;;;32.10;92.90;;;;;;1888786;73;21653;-73
2022/05/06 07:04:37;;;;;;;17.25;14.18;;;32.10;93.00;;;;;;1867260;74;21599;-72
2022/05/06 07:12:15;;;;;;;16.40;13.25;;;32.00;95.40;;;;;;1872204;73;21574;-73
2022/05/06 07:14:46;;;;;;;18.87;14.40;;;31.70;96.20;;;;;;1897371;74;21735;-73
2022/05/06 07:17:17;;;;;;;18.35;13.75;;;31.60;93.20;;;;;;1885169;73;21656;-73
2022/05/06 07:19:50;;;;;;;14.93;13.20;;;31.50;93.30;;;;;;1864513;74;21802;-73
2022/05/06 07:22:21;;;;;;;16.52;13.68;;;31.50;93.30;;;;;;1862470;75;21725;-72
2022/05/06 07:24:53;;;;;;;16.93;13.80;;;31.70;93.90;;;;;;1883051;75;21208;-72
2022/05/06 07:27:25;;;;;;;17.10;13.72;;;31.70;94.50;;;;;;1875970;73;21520;-73
2022/05/06 07:29:57;;;;;;;16.50;13.38;;;31.40;92.40;;;;;;1855138;74;21634;-76
2022/05/06 07:32:28;;;;;;;18.17;14.10;;;31.40;92.40;;;;;;1850059;75;21566;-73
2022/05/06 07:34:59;;;;;;;18.35;14.68;;;31.60;92.50;;;;;;1802071;76;21982;-74
2022/05/06 07:37:36;;;;;;;21.73;14.87;;;31.30;92.50;;;;;;1869671;75;21151;-75
2022/05/06 07:40:03;;;;;;;17.05;14.90;;;31.30;92.90;;;;;;1879726;75;21195;-73
2022/05/06 07:42:34;;;;;;;19.98;14.38;;;31.50;92.50;;;;;;1895814;73;21190;-73
2022/05/06 07:45:06;;;;;;;19.85;16.07;;;31.30;92.90;;;;;;1860753;74;21106;-73
2022/05/06 07:47:36;;;;;;;23.80;17.35;;;31.30;93.40;;;;;;1856554;75;21783;-73
2022/05/06 07:50:09;;;;;;;22.15;17.48;;;31.20;94.00;;;;;;1873275;73;21577;-73
2022/05/06 07:52:40;;;;;;;27.35;18.35;;;31.10;94.50;;;;;;1900459;74;21707;-73
2022/05/06 07:55:15;;;;;;;28.57;19.17;;;31.00;95.90;;;;;;1868288;73;21534;-73
2022/05/06 07:57:43;;;;;;;27.42;20.60;;;30.90;98.00;;;;;;1848843;74;21633;-73
2022/05/06 08:00:15;;;;;;;28.90;21.48;;;30.50;98.50;;;;;;1877952;74;21750;-74
2022/05/06 08:05:18;;;;;;;27.42;20.15;;;30.20;99.90;;;;;;1848288;74;21079;-73
2022/05/06 08:07:49;;;;;;;22.98;19.30;;;29.80;99.90;;;;;;1869724;74;21177;-73
2022/05/06 08:10:20;;;;;;;25.05;20.50;;;29.50;99.90;;;;;;1877443;73;21134;-73
2022/05/06 08:12:51;;;;;;;28.15;19.65;;;29.30;95.00;;;;;;1878475;73;21092;-72
2022/05/06 08:15:22;;;;;;;25.70;20.12;;;29.20;95.30;;;;;;1869586;74;21735;-73
2022/05/06 08:17:53;;;;;;;22.95;17.32;;;29.00;95.50;;;;;;1873743;74;21070;-72
2022/05/06 08:20:24;;;;;;;23.90;16.90;;;28.90;95.60;;;;;;1861873;75;21153;-73
2022/05/06 08:22:55;;;;;;;20.17;17.80;;;28.80;95.50;;;;;;1873370;73;21269;-72
2022/05/06 08:25:26;;;;;;;21.87;17.60;;;28.70;96.00;;;;;;1857345;73;21228;-73
2022/05/06 08:27:59;;;;;;;26.05;19.10;;;28.60;96.10;;;;;;1879442;74;21945;-72
2022/05/06 08:30:30;;;;;;;26.00;19.67;;;28.60;97.10;;;;;;1908014;73;21187;-72
2022/05/06 08:33:01;;;;;;;24.05;20.17;;;28.60;97.80;;;;;;1877806;73;21198;-73
2022/05/06 08:35:31;;;;;;;24.32;20.90;;;28.50;98.40;;;;;;1882014;75;21212;-72
2022/05/06 08:38:03;;;;;;;27.32;21.07;;;28.60;98.50;;;;;;1858308;74;21139;-74
2022/05/06 08:40:36;;;;;;;24.60;20.37;;;28.60;98.40;;;;;;1864161;75;21157;-72
2022/05/06 08:43:07;;;;;;;24.90;21.25;;;28.60;98.40;;;;;;1879257;74;21223;-71
2022/05/06 08:50:55;;;;;;;26.45;21.07;;;28.70;99.00;;;;;;1850238;76;21138;-71
2022/05/06 08:53:19;;;;;;;26.70;21.17;;;28.70;99.90;;;;;;1865010;73;21612;-71
2022/05/06 08:55:52;;;;;;;25.85;22.17;;;28.70;99.70;;;;;;1806738;78;21239;-71
2022/05/06 08:58:25;;;;;;;24.40;20.80;;;28.80;99.90;;;;;;1815475;77;21178;-72
2022/05/06 09:01:02;;;;;;;24.63;20.97;;;28.80;99.90;;;;;;1881862;74;21225;-72
2022/05/06 09:03:33;;;;;;;27.50;20.70;;;28.90;99.10;;;;;;1889528;73;21171;-72
2022/05/06 09:06:05;;;;;;;26.57;21.45;;;28.90;98.50;;;;;;1835784;76;21162;-74
2022/05/06 09:08:38;;;;;;;25.90;21.77;;;28.90;99.00;;;;;;1872007;73;21100;-74
2022/05/06 09:11:09;;;;;;;30.17;21.50;;;29.00;98.70;;;;;;1870649;74;21154;-73
2022/05/06 09:13:42;;;;;;;33.23;24.12;;;29.00;98.10;;;;;;1896517;74;21159;-73
2022/05/06 09:18:48;;;;;;;31.07;24.32;;;29.00;97.70;;;;;;1871037;75;21712;-73
2022/05/06 09:21:18;;;;;;;27.80;23.92;;;29.10;97.70;;;;;;1861910;75;21708;-73
2022/05/06 09:23:50;;;;;;;31.10;23.50;;;29.10;97.70;;;;;;1877409;74;21151;-71
2022/05/06 09:26:20;;;;;;;31.77;24.77;;;29.10;97.60;;;;;;1878554;73;21089;-71
2022/05/06 09:28:51;;;;;;;31.35;22.42;;;29.10;97.70;;;;;;1862444;74;21189;-74
2022/05/06 09:31:26;;;;;;;27.87;22.87;;;29.10;96.90;;;;;;1875976;73;21070;-72
2022/05/06 09:34:01;;;;;;;29.70;22.42;;;29.10;97.00;;;;;;1874687;74;21169;-72
2022/05/06 09:36:33;;;;;;;27.87;22.98;;;29.10;97.20;;;;;;1862096;75;21782;-72
2022/05/06 09:39:06;;;;;;;26.40;22.52;;;29.20;97.50;;;;;;1878634;74;21147;-72
2022/05/06 09:41:39;;;;;;;29.48;22.42;;;29.20;96.80;;;;;;1873974;74;21768;-74
2022/05/06 09:44:12;;;;;;;27.67;22.60;;;29.20;96.70;;;;;;1881224;74;21183;-73
2022/05/06 09:46:44;;;;;;;27.20;21.85;;;29.20;96.50;;;;;;1895158;75;22047;-74
2022/05/06 09:49:17;;;;;;;35.15;23.50;;;29.20;96.70;;;;;;1888200;74;21079;-73
2022/05/06 09:51:49;;;;;;;30.65;23.35;;;29.20;96.70;;;;;;1874033;73;21147;-72
2022/05/06 09:54:24;;;;;;;27.52;22.62;;;29.30;96.50;;;;;;1873963;74;21549;-72
2022/05/06 09:56:55;;;;;;;24.43;21.87;;;29.30;96.70;;;;;;1889934;74;21130;-72
2022/05/06 09:59:27;;;;;;;23.55;20.65;;;29.30;96.40;;;;;;1859757;75;21213;-72
2022/05/06 10:01:58;;;;;;;27.15;21.12;;;29.30;96.30;;;;;;1881068;74;21160;-71
2022/05/06 10:04:30;;;;;;;27.55;21.25;;;29.30;95.90;;;;;;1897733;73;21172;-72
2022/05/06 10:07:02;;;;;;;25.90;20.68;;;29.30;95.50;;;;;;1881288;74;21135;-75
2022/05/06 10:09:35;;;;;;;24.87;20.10;;;29.30;95.80;;;;;;1886730;75;21839;-72
2022/05/06 10:12:08;;;;;;;26.73;20.40;;;29.30;96.10;;;;;;1866320;74;21071;-80
2022/05/06 10:14:41;;;;;;;25.75;20.62;;;29.40;95.90;;;;;;1853979;75;21130;-80
2022/05/06 10:17:11;;;;;;;25.68;20.40;;;29.40;95.60;;;;;;1862985;74;21539;-79
2022/05/06 10:19:44;;;;;;;24.02;19.87;;;29.40;95.20;;;;;;1866222;74;21146;-78
2022/05/06 10:22:14;;;;;;;24.02;20.65;;;29.40;95.20;;;;;;1888477;73;21092;-80
2022/05/06 10:24:49;;;;;;;27.00;21.23;;;29.50;95.40;;;;;;1890586;73;21200;-77
2022/05/06 10:27:21;;;;;;;26.55;21.27;;;29.50;95.80;;;;;;1880871;73;21652;-78
2022/05/06 10:32:29;;;;;;;28.17;21.20;;;29.40;95.60;;;;;;1894886;73;20158;-79
2022/05/06 10:35:02;;;;;;;30.60;20.55;;;29.40;95.30;;;;;;1891000;73;21716;-79
2022/05/06 10:37:34;;;;;;;25.60;20.72;;;29.40;95.00;;;;;;1888399;73;21729;-79
2022/05/06 10:40:07;;;;;;;22.98;19.75;;;29.40;95.20;;;;;;1886538;74;21206;-79
2022/05/06 10:42:38;;;;;;;26.68;21.07;;;29.40;95.20;;;;;;1906609;73;21277;-79
2022/05/06 10:45:11;;;;;;;28.38;21.75;;;29.40;95.20;;;;;;1885900;74;21586;-78
2022/05/06 10:47:43;;;;;;;28.00;20.62;;;29.40;95.10;;;;;;1915990;73;21610;-78
2022/05/06 10:50:16;;;;;;;28.95;21.05;;;29.40;95.10;;;;;;1915985;73;21582;-78
2022/05/06 10:52:48;;;;;;;27.42;21.23;;;29.40;95.00;;;;;;1924031;73;21735;-79
2022/05/06 10:55:21;;;;;;;24.80;19.70;;;29.50;95.00;;;;;;1904857;74;21642;-78
2022/05/06 10:57:55;;;;;;;24.72;20.30;;;29.50;94.90;;;;;;1910927;73;21092;-79
2022/05/06 11:00:29;;;;;;;26.37;20.55;;;29.50;95.00;;;;;;1899149;74;21183;-79
2022/05/06 11:03:00;;;;;;;26.20;20.50;;;29.50;94.60;;;;;;1899562;73;21091;-77
2022/05/06 11:05:32;;;;;;;29.02;20.50;;;29.40;94.40;;;;;;1918580;73;21134;-78
2022/05/06 11:08:06;;;;;;;26.62;20.75;;;29.40;94.40;;;;;;1909492;73;21139;-78
2022/05/06 11:10:37;;;;;;;24.32;19.10;;;29.40;94.80;;;;;;1914490;73;21147;-80
2022/05/06 11:13:09;;;;;;;29.67;19.75;;;29.40;94.60;;;;;;1908501;73;21071;-79
2022/05/06 11:15:40;;;;;;;27.37;21.33;;;29.40;94.30;;;;;;1906478;73;21162;-80
2022/05/06 11:18:14;;;;;;;26.87;19.20;;;29.40;94.40;;;;;;1876703;76;21147;-80
2022/05/06 11:20:45;;;;;;;28.90;20.82;;;29.50;94.40;;;;;;1865014;75;21247;-79
2022/05/06 11:23:18;;;;;;;26.77;20.97;;;29.50;94.30;;;;;;1862485;75;21587;-79
2022/05/06 11:25:50;;;;;;;26.50;20.15;;;29.50;94.30;;;;;;1865924;74;21210;-78
2022/05/06 11:28:30;;;;;;;26.27;20.30;;;29.50;94.40;;;;;;1864042;74;21171;-79
2022/05/06 11:31:00;;;;;;;26.55;20.57;;;29.50;94.60;;;;;;1864083;74;21129;-80
2022/05/06 11:33:36;;;;;;;26.60;19.02;;;29.40;94.60;;;;;;1883463;74;21153;-79
2022/05/06 11:36:14;;;;;;;27.15;19.17;;;29.40;94.30;;;;;;1878556;74;21681;-79
2022/05/06 11:38:46;;;;;;;25.45;19.10;;;29.40;94.40;;;;;;1869388;74;21197;-80
2022/05/06 11:41:18;;;;;;;24.32;19.92;;;29.40;94.30;;;;;;1893713;73;21174;-78
2022/05/06 11:43:49;;;;;;;26.62;19.92;;;29.40;94.40;;;;;;1925218;73;21096;-80
2022/05/06 11:48:57;;;;;;;27.70;21.75;;;29.40;94.40;;;;;;1893599;73;21088;-80
2022/05/06 11:51:31;;;;;;;32.23;22.20;;;29.40;94.50;;;;;;1921053;75;21162;-79
2022/05/06 11:54:03;;;;;;;30.17;21.45;;;29.40;94.50;;;;;;1920964;75;21173;-79
2022/05/06 11:56:36;;;;;;;30.30;21.35;;;29.40;94.60;;;;;;1919410;74;21186;-79
2022/05/06 11:59:08;;;;;;;33.90;22.60;;;29.40;94.70;;;;;;1889603;75;21185;-77
2022/05/06 12:01:41;;;;;;;35.78;22.27;;;29.40;94.70;;;;;;1873637;75;21080;-80
2022/05/06 12:04:23;;;;;;;28.65;22.35;;;29.40;94.80;;;;;;1863836;74;21609;-81
2022/05/06 12:07:01;;;;;;;29.12;21.52;;;29.40;94.70;;;;;;1850889;77;21130;-79
2022/05/06 12:09:35;;;;;;;26.90;21.90;;;29.40;94.60;;;;;;1863305;75;21252;-79
2022/05/06 12:12:10;;;;;;;29.23;22.02;;;29.30;94.80;;;;;;1887826;74;21134;-78
2022/05/06 12:14:41;;;;;;;32.08;22.27;;;29.30;95.00;;;;;;1871044;76;21119;-78
2022/05/06 12:17:15;;;;;;;28.23;23.15;;;29.30;95.40;;;;;;1872448;76;21549;-81
2022/05/06 12:19:47;;;;;;;29.35;22.48;;;29.30;95.70;;;;;;1866803;76;21071;-80
2022/05/06 12:22:25;;;;;;;30.77;22.27;;;29.20;95.60;;;;;;1854503;76;21721;-79
2022/05/06 12:25:00;;;;;;;27.13;21.35;;;29.20;95.60;;;;;;1853539;76;21078;-80
2022/05/06 12:27:56;;;;;;;20.77;16.87;;;29.10;95.90;;;;;;1829313;76;21645;-80
2022/05/06 12:30:30;;;;;;;15.48;10.15;;;29.10;95.10;;;;;;1848847;75;21095;-79
2022/05/06 12:33:03;;;;;;;12.47;9.05;;;29.00;94.00;;;;;;1877737;76;21463;-79
2022/05/06 12:35:37;;;;;;;13.18;7.30;;;29.00;93.80;;;;;;1877427;76;21155;-79
2022/05/06 12:38:11;;;;;;;9.38;6.40;;;28.90;93.40;;;;;;1876412;75;21127;-79
2022/05/06 12:40:42;;;;;;;8.50;6.53;;;28.90;93.00;;;;;;1910663;74;21139;-78
2022/05/06 12:43:15;;;;;;;7.35;5.72;;;28.80;92.70;;;;;;1909716;75;21131;-79
2022/05/06 12:45:48;;;;;;;12.03;5.87;;;28.80;92.30;;;;;;1887469;75;21772;-79
2022/05/06 12:50:51;;;;;;;6.10;4.90;;;28.70;92.10;;;;;;1875718;76;21196;-79
2022/05/06 12:53:22;;;;;;;9.68;4.70;;;28.70;92.00;;;;;;1876626;75;21268;-79
2022/05/06 12:55:55;;;;;;;6.50;4.75;;;28.60;92.10;;;;;;1877599;75;21212;-79
2022/05/06 12:58:27;;;;;;;9.85;5.40;;;28.50;92.30;;;;;;1870443;75;21150;-80
2022/05/06 13:01:00;;;;;;;10.98;6.40;;;28.50;92.50;;;;;;1874867;75;21166;-80
2022/05/06 13:03:30;;;;;;;10.00;6.25;;;28.40;92.60;;;;;;1875116;75;21166;-80
2022/05/06 13:06:03;;;;;;;8.43;5.75;;;28.30;92.80;;;;;;1822590;76;21177;-80
2022/05/06 13:08:36;;;;;;;10.20;5.80;;;28.30;93.00;;;;;;1877809;75;21230;-80
2022/05/06 13:11:06;;;;;;;10.93;5.85;;;28.30;93.10;;;;;;1827940;77;21172;-79
2022/05/06 13:13:41;;;;;;;8.33;5.97;;;28.20;93.30;;;;;;1876590;75;21096;-79
2022/05/06 13:16:12;;;;;;;10.68;5.70;;;28.20;93.40;;;;;;1877703;75;21229;-80
2022/05/06 13:18:45;;;;;;;7.55;5.40;;;28.20;93.40;;;;;;1874712;75;21133;-80
2022/05/06 13:21:18;;;;;;;8.48;5.58;;;28.10;93.40;;;;;;1875682;75;21146;-79
2022/05/06 13:23:49;;;;;;;9.58;6.28;;;28.10;93.50;;;;;;1875490;75;21689;-80
2022/05/06 13:26:20;;;;;;;10.40;5.95;;;28.10;93.50;;;;;;1877038;75;21594;-80
2022/05/06 13:28:55;;;;;;;10.05;6.72;;;28.00;93.50;;;;;;1873675;75;21229;-79
2022/05/06 13:31:26;;;;;;;9.23;6.17;;;28.00;93.60;;;;;;1876866;75;21121;-80
2022/05/06 13:33:57;;;;;;;8.80;5.50;;;28.00;93.60;;;;;;1876679;75;21204;-79